Winona Lake, Indiana
Current Conditions -  °F | °C
As of 4:15 PM on Saturday 22 Nov 2014 (Local Time) from KASW Reporting Station
Overcast Overcast  
Wind Chill: 45°   Ceiling: 2700
Heat Index: 48°   Visibility: 10mi
Dew Point: 45°   Wind: 8mph
Humidity: 87%   Direction: 210°SSW
Pressure: 29.96"   Gusts: NA
Location:  41.23°N, 85.82°W
Report Text: KASW 222115Z AUTO 21007KT 187V247 10SM OVC027 09/07 A2996 RMK AO2
Loading
Personal Weather Stations






























Interactive Weather Map New forecast layout! Learn more

10-Day Weather Forecast

Advertisements
Track Severe Weather on mobile